Time;durP1;ratioP1;P1;durP2;ratioP2;P2;SDS_P1;SDS_P2;PMS_P1;PMS_P2;Temp;Humidity;BMP_temperature;BMP_pressure;BME280_temperature;BME280_humidity;BME280_pressure;Samples;Min_cycle;Max_cycle;Signal;HPM_P1;HPM_P2
2024/04/11 00:00:31;;;;;;;9.13;6.75;;;;;;;9.15;100.00;102778.16;10809892;26;20083;-71
2024/04/11 00:05:28;;;;;;;11.00;8.23;;;;;;;9.11;100.00;102780.56;10843033;26;20010;-73
2024/04/11 00:10:25;;;;;;;11.52;8.05;;;;;;;9.04;100.00;102761.69;10780148;26;20479;-72
2024/04/11 00:15:23;;;;;;;15.50;7.65;;;;;;;9.03;100.00;102762.78;10800144;26;20013;-72
2024/04/11 00:20:21;;;;;;;11.63;8.38;;;;;;;8.98;100.00;102770.06;10780312;26;20017;-72
2024/04/11 00:25:19;;;;;;;15.88;8.55;;;;;;;9.00;100.00;102778.81;10768102;26;20024;-71
2024/04/11 00:30:16;;;;;;;14.95;8.15;;;;;;;8.95;100.00;102765.94;10777131;26;20008;-71
2024/04/11 00:35:15;;;;;;;9.50;7.88;;;;;;;8.95;100.00;102760.50;10792046;26;20033;-72
2024/04/11 00:40:12;;;;;;;15.52;8.43;;;;;;;8.95;100.00;102733.22;10785898;26;20032;-72
2024/04/11 00:45:09;;;;;;;11.73;8.75;;;;;;;8.91;100.00;102728.53;10853246;26;20016;-72
2024/04/11 00:50:07;;;;;;;16.45;8.60;;;;;;;8.89;100.00;102739.72;10780249;26;20013;-70
2024/04/11 00:55:05;;;;;;;10.18;7.85;;;;;;;8.91;100.00;102764.84;10779936;26;20050;-71
2024/04/11 01:00:04;;;;;;;13.55;9.13;;;;;;;8.99;100.00;102761.63;10854740;26;20090;-72
2024/04/11 01:05:01;;;;;;;14.10;8.77;;;;;;;9.02;100.00;102755.66;10788370;26;20006;-72
2024/04/11 01:09:58;;;;;;;10.00;8.85;;;;;;;9.13;100.00;102758.50;10828415;26;20020;-72
2024/04/11 01:14:55;;;;;;;10.35;7.85;;;;;;;9.21;100.00;102763.47;10849275;26;20064;-71
2024/04/11 01:19:53;;;;;;;12.20;7.78;;;;;;;9.25;100.00;102759.16;10856235;26;20474;-70
2024/04/11 01:24:52;;;;;;;12.85;8.93;;;;;;;9.16;100.00;102742.41;10842766;26;20014;-70
2024/04/11 01:29:51;;;;;;;10.65;8.57;;;;;;;9.13;100.00;102712.09;10805052;26;20013;-70
2024/04/11 01:34:56;;;;;;;9.35;7.80;;;;;;;9.17;100.00;102735.88;10841071;26;19997;-70
2024/04/11 01:39:53;;;;;;;10.95;7.97;;;;;;;9.24;100.00;102724.75;10800160;26;20485;-69
2024/04/11 01:44:51;;;;;;;13.25;8.52;;;;;;;9.27;100.00;102732.41;10801090;26;20018;-72
2024/04/11 01:49:48;;;;;;;8.95;8.10;;;;;;;9.25;100.00;102720.94;10860930;26;20019;-72
2024/04/11 01:54:45;;;;;;;14.13;8.52;;;;;;;9.24;100.00;102720.13;10811819;26;19998;-70
2024/04/11 01:59:43;;;;;;;10.90;7.78;;;;;;;9.25;100.00;102726.41;10849250;26;20013;-71
2024/04/11 02:04:40;;;;;;;11.18;8.40;;;;;;;9.35;100.00;102715.59;10844659;26;20744;-71
2024/04/11 02:09:37;;;;;;;12.02;8.32;;;;;;;9.46;100.00;102722.75;10842823;26;20002;-71
2024/04/11 02:14:34;;;;;;;12.00;7.45;;;;;;;9.47;100.00;102713.47;10798782;26;20053;-71
2024/04/11 02:19:32;;;;;;;10.20;7.35;;;;;;;9.53;100.00;102706.13;10849335;26;20009;-71
2024/04/11 02:24:29;;;;;;;9.10;6.78;;;;;;;9.61;100.00;102702.94;10833083;26;20005;-69
2024/04/11 02:29:28;;;;;;;9.60;7.10;;;;;;;9.66;100.00;102685.75;10837416;26;20434;-73
2024/04/11 02:34:28;;;;;;;9.45;6.78;;;;;;;9.74;100.00;102695.34;10785807;26;20010;-71
2024/04/11 02:39:26;;;;;;;10.45;6.90;;;;;;;9.79;100.00;102688.00;10788813;26;20010;-73
2024/04/11 02:44:24;;;;;;;8.77;6.55;;;;;;;9.82;100.00;102694.88;10859528;26;20500;-73
2024/04/11 02:49:22;;;;;;;9.75;6.40;;;;;;;9.89;100.00;102692.72;10855796;26;20017;-71
2024/04/11 02:54:20;;;;;;;10.52;6.28;;;;;;;9.96;100.00;102678.81;10832108;26;20556;-70
2024/04/11 02:59:17;;;;;;;10.73;5.85;;;;;;;10.08;100.00;102673.97;10840642;26;20033;-70
2024/04/11 03:04:14;;;;;;;11.63;6.15;;;;;;;10.17;100.00;102672.34;10849184;26;20371;-70
2024/04/11 03:09:11;;;;;;;8.23;5.53;;;;;;;10.25;100.00;102674.56;10848205;26;20005;-70
2024/04/11 03:14:13;;;;;;;6.73;5.70;;;;;;;10.37;100.00;102648.94;10856491;26;20020;-68
2024/04/11 03:19:10;;;;;;;9.02;5.78;;;;;;;10.44;100.00;102654.97;10859947;26;20449;-69
2024/04/11 03:24:07;;;;;;;6.47;5.70;;;;;;;10.48;100.00;102634.19;10859488;26;20338;-69
2024/04/11 03:29:05;;;;;;;6.90;5.70;;;;;;;10.51;100.00;102633.66;10789525;26;20002;-70
2024/04/11 03:34:02;;;;;;;11.43;6.43;;;;;;;10.50;100.00;102626.53;10832613;26;20016;-70
2024/04/11 03:38:59;;;;;;;10.40;5.28;;;;;;;10.47;100.00;102638.03;10796162;26;20002;-70
2024/04/11 03:43:57;;;;;;;7.40;6.15;;;;;;;10.46;100.00;102637.19;10800216;26;20053;-72
2024/04/11 03:48:58;;;;;;;11.30;6.10;;;;;;;10.46;100.00;102628.16;10768770;26;20827;-69
2024/04/11 03:53:56;;;;;;;13.18;5.97;;;;;;;10.48;100.00;102617.78;10789191;26;20006;-70
2024/04/11 03:58:56;;;;;;;9.05;6.20;;;;;;;10.51;100.00;102606.28;10768437;26;20034;-71
2024/04/11 04:04:01;;;;;;;10.35;6.50;;;;;;;10.53;100.00;102606.84;10774596;26;20079;-70
2024/04/11 04:08:58;;;;;;;8.13;6.18;;;;;;;10.58;100.00;102612.31;10788976;26;20088;-70
2024/04/11 04:13:57;;;;;;;8.90;6.22;;;;;;;10.60;100.00;102610.13;10832877;26;20015;-71
2024/04/11 04:18:54;;;;;;;10.95;6.00;;;;;;;10.63;100.00;102603.31;10847145;26;20532;-71
2024/04/11 04:23:55;;;;;;;8.05;5.80;;;;;;;10.71;100.00;102603.59;10768182;26;20013;-70
2024/04/11 04:28:56;;;;;;;10.02;6.10;;;;;;;10.84;100.00;102598.69;10761161;26;20006;-71
2024/04/11 04:33:55;;;;;;;11.87;7.43;;;;;;;10.87;100.00;102598.13;10819930;26;20001;-71
2024/04/11 04:38:57;;;;;;;9.95;6.30;;;;;;;10.98;100.00;102588.81;10799133;26;20036;-73
2024/04/11 04:43:55;;;;;;;6.40;5.68;;;;;;;11.05;100.00;102621.41;10770317;26;20006;-71
2024/04/11 04:48:53;;;;;;;8.55;7.50;;;;;;;11.06;100.00;102596.47;10767266;26;20446;-74
2024/04/11 04:53:51;;;;;;;9.73;6.15;;;;;;;11.07;100.00;102587.19;10800838;26;20341;-74
2024/04/11 04:58:51;;;;;;;7.43;5.88;;;;;;;11.12;100.00;102603.59;10839994;26;20036;-73
2024/04/11 05:03:50;;;;;;;9.73;6.75;;;;;;;11.10;100.00;102586.63;10770673;26;20626;-73
2024/04/11 05:08:48;;;;;;;8.27;6.28;;;;;;;11.11;100.00;102592.91;10774314;26;20480;-73
2024/04/11 05:13:45;;;;;;;7.13;6.25;;;;;;;11.09;100.00;102589.63;10765698;26;20043;-73
2024/04/11 05:18:47;;;;;;;13.90;8.43;;;;;;;11.06;100.00;102592.91;10764260;26;20086;-71
2024/04/11 05:23:44;;;;;;;11.15;6.47;;;;;;;11.02;100.00;102587.16;10779964;26;20012;-71
2024/04/11 05:28:46;;;;;;;10.88;6.57;;;;;;;11.05;100.00;102583.88;10767846;26;19998;-70
2024/04/11 05:33:53;;;;;;;8.40;5.85;;;;;;;10.99;100.00;102576.78;10783043;26;20013;-72
2024/04/11 05:38:54;;;;;;;9.70;6.60;;;;;;;10.97;100.00;102589.91;10839490;26;20041;-72
2024/04/11 05:43:52;;;;;;;11.68;5.90;;;;;;;11.00;100.00;102585.78;10842172;26;20009;-73
2024/04/11 05:48:50;;;;;;;10.07;6.80;;;;;;;10.99;100.00;102590.44;10800803;26;19997;-72
2024/04/11 05:53:48;;;;;;;14.68;6.05;;;;;;;10.91;100.00;102602.78;10770525;26;20457;-73
2024/04/11 05:58:49;;;;;;;7.32;5.60;;;;;;;10.65;100.00;102614.78;10840360;26;20008;-70
2024/04/11 06:03:49;;;;;;;11.95;6.25;;;;;;;10.44;100.00;102616.69;10848782;26;20041;-74
2024/04/11 06:08:48;;;;;;;11.02;6.35;;;;;;;10.47;100.00;102605.22;10835048;26;20041;-72
2024/04/11 06:13:49;;;;;;;8.18;6.22;;;;;;;10.64;100.00;102600.31;10849812;26;20011;-71
2024/04/11 06:18:48;;;;;;;11.50;5.95;;;;;;;10.83;100.00;102613.44;10809137;26;20021;-71
2024/04/11 06:23:45;;;;;;;11.02;6.60;;;;;;;10.98;100.00;102610.72;10794166;26;20020;-73
2024/04/11 06:28:44;;;;;;;14.50;7.60;;;;;;;11.12;100.00;102616.47;10830813;26;20016;-71
2024/04/11 06:33:42;;;;;;;9.88;6.13;;;;;;;11.15;100.00;102627.66;10811886;26;20016;-71
2024/04/11 06:38:40;;;;;;;6.88;6.22;;;;;;;11.22;100.00;102632.06;10785760;26;20016;-71
2024/04/11 06:43:38;;;;;;;9.75;6.63;;;;;;;11.25;100.00;102634.22;10823701;26;20453;-73
2024/04/11 06:48:35;;;;;;;11.88;7.30;;;;;;;11.30;100.00;102645.19;10852955;26;20052;-73
2024/04/11 06:53:33;;;;;;;9.13;6.85;;;;;;;11.30;100.00;102662.44;10858236;26;20016;-72
2024/04/11 06:58:32;;;;;;;9.45;7.65;;;;;;;10.72;100.00;102673.66;10865592;26;20016;-73
2024/04/11 07:03:30;;;;;;;8.88;7.88;;;;;;;10.09;100.00;102692.00;10860561;26;20044;-72
2024/04/11 07:08:34;;;;;;;12.98;7.97;;;;;;;9.80;100.00;102716.97;10832664;26;20005;-72
2024/04/11 07:13:33;;;;;;;10.15;8.60;;;;;;;9.60;100.00;102738.69;10843266;26;20574;-72
2024/04/11 07:18:44;;;;;;;10.75;7.97;;;;;;;9.51;100.00;102745.72;10809689;26;20079;-72
2024/04/11 07:23:42;;;;;;;9.65;8.13;;;;;;;9.36;100.00;102749.97;10838527;26;20021;-72
2024/04/11 07:28:41;;;;;;;13.73;8.43;;;;;;;9.38;100.00;102753.28;10802995;26;20522;-72
2024/04/11 07:33:38;;;;;;;12.55;8.55;;;;;;;9.28;100.00;102769.53;10834676;26;20001;-72
2024/04/11 07:38:39;;;;;;;12.77;8.07;;;;;;;9.23;100.00;102777.69;10790282;26;20103;-71
2024/04/11 07:43:37;;;;;;;10.75;8.02;;;;;;;9.20;100.00;102783.69;10792375;26;20075;-71
2024/04/11 07:48:35;;;;;;;16.45;9.70;;;;;;;9.09;100.00;102781.91;10796718;26;20049;-72
2024/04/11 07:53:32;;;;;;;9.98;8.60;;;;;;;9.13;100.00;102783.06;10781233;26;20002;-72
2024/04/11 07:58:30;;;;;;;9.13;8.23;;;;;;;9.17;100.00;102789.66;10790999;26;20014;-72
2024/04/11 08:03:27;;;;;;;15.65;8.57;;;;;;;9.18;100.00;102796.75;10836814;26;20002;-71
2024/04/11 08:08:24;;;;;;;8.75;7.28;;;;;;;9.13;100.00;102791.25;10797877;26;20009;-71
2024/04/11 08:13:22;;;;;;;12.40;7.55;;;;;;;9.07;100.00;102784.91;10834090;26;20001;-71
2024/04/11 08:18:20;;;;;;;9.63;7.40;;;;;;;9.10;100.00;102799.94;10805212;26;20401;-71
2024/04/11 08:23:20;;;;;;;14.75;7.95;;;;;;;9.08;100.00;102802.13;10781560;26;20438;-71
2024/04/11 08:28:18;;;;;;;9.63;7.97;;;;;;;9.11;100.00;102798.88;10783724;26;20367;-71
2024/04/11 08:33:15;;;;;;;13.93;8.52;;;;;;;9.19;100.00;102820.22;10786099;26;20084;-71
2024/04/11 08:38:13;;;;;;;14.30;7.72;;;;;;;9.22;100.00;102814.25;10788664;26;20086;-72
2024/04/11 08:43:10;;;;;;;9.52;8.40;;;;;;;9.28;100.00;102813.22;10797792;26;20638;-72
2024/04/11 08:48:07;;;;;;;12.15;8.50;;;;;;;9.40;100.00;102811.19;10828026;26;20360;-71
2024/04/11 08:53:09;;;;;;;11.82;7.78;;;;;;;9.60;100.00;102826.09;10803133;26;20006;-71
2024/04/11 08:58:07;;;;;;;12.07;7.70;;;;;;;9.76;100.00;102829.78;10779520;26;20524;-72
2024/04/11 09:03:05;;;;;;;13.65;8.48;;;;;;;9.80;100.00;102823.53;10768827;26;20037;-71
2024/04/11 09:08:05;;;;;;;17.45;8.57;;;;;;;9.93;100.00;102835.09;10796953;26;20005;-71
2024/04/11 09:13:02;;;;;;;13.10;8.40;;;;;;;9.89;100.00;102841.09;10793005;26;20488;-71
2024/04/11 09:17:59;;;;;;;11.68;7.93;;;;;;;9.98;100.00;102832.38;10778149;26;20021;-71
2024/04/11 09:22:59;;;;;;;12.38;8.73;;;;;;;10.22;100.00;102833.66;10812456;26;20016;-72
2024/04/11 09:27:59;;;;;;;9.13;7.95;;;;;;;10.26;100.00;102862.13;10850149;26;20370;-72
2024/04/11 09:33:09;;;;;;;11.93;7.78;;;;;;;10.24;100.00;102836.16;10841223;26;20381;-71
2024/04/11 09:38:12;;;;;;;8.38;7.35;;;;;;;10.48;100.00;102850.25;10845726;26;20011;-69
2024/04/11 09:43:15;;;;;;;16.52;8.70;;;;;;;10.60;100.00;102845.38;10857600;26;20009;-72
2024/04/11 09:48:12;;;;;;;14.73;9.40;;;;;;;10.52;100.00;102863.13;10860148;26;20429;-72
2024/04/11 09:53:13;;;;;;;12.45;9.00;;;;;;;10.25;100.00;102874.13;10855275;26;20016;-72
2024/04/11 09:58:10;;;;;;;12.10;7.90;;;;;;;10.21;100.00;102897.66;10851818;26;20553;-71
2024/04/11 10:03:07;;;;;;;9.82;8.20;;;;;;;10.15;100.00;102903.34;10849828;26;20005;-72
2024/04/11 10:08:16;;;;;;;15.25;8.10;;;;;;;10.06;100.00;102902.97;10840455;26;20038;-72
2024/04/11 10:13:14;;;;;;;8.95;7.18;;;;;;;10.07;100.00;102896.41;10868996;26;20016;-72
2024/04/11 10:18:15;;;;;;;10.55;8.05;;;;;;;10.14;100.00;102894.28;10847999;26;20019;-72
2024/04/11 10:23:15;;;;;;;10.13;7.87;;;;;;;10.43;100.00;102903.00;10844511;26;20695;-72
2024/04/11 10:28:18;;;;;;;8.80;7.72;;;;;;;10.61;100.00;102898.22;10833836;26;20340;-72
2024/04/11 10:33:15;;;;;;;9.40;7.75;;;;;;;10.82;100.00;102904.63;10841014;26;20017;-72
2024/04/11 10:38:26;;;;;;;13.38;8.27;;;;;;;11.01;100.00;102905.78;10844007;26;20020;-72
2024/04/11 10:43:27;;;;;;;11.98;8.05;;;;;;;11.34;100.00;102887.28;10846504;26;20017;-72
2024/04/11 10:48:25;;;;;;;12.43;8.38;;;;;;;11.55;100.00;102885.41;10853291;26;20001;-72
2024/04/11 10:53:24;;;;;;;9.25;8.30;;;;;;;11.71;100.00;102876.09;10853689;26;20029;-72
2024/04/11 10:58:25;;;;;;;11.48;8.25;;;;;;;11.71;100.00;102886.25;10857030;26;20009;-72
2024/04/11 11:03:40;;;;;;;11.77;7.82;;;;;;;11.87;100.00;102879.72;10828371;26;20079;-70
2024/04/11 11:08:43;;;;;;;14.15;8.05;;;;;;;11.76;100.00;102899.94;10841558;26;20444;-70
2024/04/11 11:13:44;;;;;;;10.45;8.38;;;;;;;11.73;100.00;102895.03;10854130;26;20955;-70
2024/04/11 11:18:43;;;;;;;11.83;9.10;;;;;;;11.85;100.00;102895.56;10816388;26;20019;-72
2024/04/11 11:23:45;;;;;;;9.00;7.88;;;;;;;12.13;100.00;102887.94;10850937;26;20356;-70
2024/04/11 11:28:42;;;;;;;9.95;8.13;;;;;;;12.53;100.00;102875.25;10850777;26;20016;-70
2024/04/11 11:33:41;;;;;;;12.15;8.25;;;;;;;12.49;100.00;102880.47;10836304;26;20006;-70
2024/04/11 11:38:40;;;;;;;11.95;8.77;;;;;;;12.84;100.00;102878.72;10844571;26;20016;-70
2024/04/11 11:43:43;;;;;;;12.77;8.32;;;;;;;12.77;100.00;102891.94;10840907;26;20005;-70
2024/04/11 11:48:45;;;;;;;16.15;9.82;;;;;;;12.66;100.00;102901.28;10846184;26;20075;-69
2024/04/11 11:53:45;;;;;;;12.90;9.77;;;;;;;12.42;100.00;102913.69;10844979;26;20005;-71
2024/04/11 11:58:46;;;;;;;15.70;10.35;;;;;;;12.51;100.00;102932.31;10854661;26;20008;-70
2024/04/11 12:03:44;;;;;;;11.25;7.97;;;;;;;12.73;100.00;102897.13;10850897;26;20046;-70
2024/04/11 12:08:43;;;;;;;10.45;8.10;;;;;;;12.84;100.00;102885.03;10846503;26;20009;-70
2024/04/11 12:13:51;;;;;;;10.63;8.32;;;;;;;13.02;100.00;102880.84;10846979;26;20037;-70
2024/04/11 12:18:48;;;;;;;13.82;9.27;;;;;;;13.28;100.00;102896.41;10858861;26;20643;-71
2024/04/11 12:23:47;;;;;;;13.43;9.57;;;;;;;13.19;100.00;102883.22;10842353;26;20009;-70
2024/04/11 12:28:50;;;;;;;12.52;9.32;;;;;;;13.07;100.00;102904.72;10860452;26;20005;-70
2024/04/11 12:33:48;;;;;;;16.55;10.65;;;;;;;13.09;100.00;102888.78;10847442;26;20016;-70
2024/04/11 12:38:48;;;;;;;13.65;11.13;;;;;;;13.04;100.00;102924.47;10854442;26;20028;-71
2024/04/11 12:43:46;;;;;;;13.68;10.90;;;;;;;13.04;100.00;102908.00;10856073;26;20259;-70
2024/04/11 12:48:46;;;;;;;14.05;9.63;;;;;;;13.22;100.00;102901.88;10850330;26;20082;-71
2024/04/11 12:53:43;;;;;;;12.43;10.32;;;;;;;13.30;100.00;102906.00;10847286;26;20008;-70
2024/04/11 12:58:59;;;;;;;12.13;10.38;;;;;;;13.24;100.00;102896.94;10860517;26;20004;-70
2024/04/11 13:03:57;;;;;;;11.70;10.15;;;;;;;13.35;100.00;102899.66;10854732;26;20021;-71
2024/04/11 13:14:17;;;;;;;10.77;9.77;;;;;;;13.32;100.00;102894.72;10855107;26;20012;-69
2024/04/11 13:19:19;;;;;;;11.60;10.43;;;;;;;13.47;100.00;102897.38;10858142;26;20019;-70
2024/04/11 13:24:20;;;;;;;15.87;11.17;;;;;;;13.40;100.00;102888.66;10842459;26;20023;-70
2024/04/11 13:29:18;;;;;;;13.93;11.02;;;;;;;13.46;100.00;102899.31;10859897;26;20019;-70
2024/04/11 13:34:20;;;;;;;12.52;10.80;;;;;;;13.35;100.00;102907.91;10848571;26;20089;-70
2024/04/11 13:39:18;;;;;;;13.98;11.27;;;;;;;13.34;100.00;102909.81;10779859;26;20345;-71
2024/04/11 13:44:22;;;;;;;14.23;10.70;;;;;;;13.23;100.00;102925.50;10815147;26;20082;-69
2024/04/11 13:49:30;;;;;;;15.63;11.25;;;;;;;13.22;100.00;102923.84;10777433;26;20005;-71
2024/04/11 13:54:31;;;;;;;13.57;11.25;;;;;;;13.12;100.00;102936.84;10777427;26;20013;-71
2024/04/11 13:59:29;;;;;;;13.15;11.48;;;;;;;13.15;100.00;102931.59;10823368;26;20457;-71
2024/04/11 14:09:44;;;;;;;16.40;11.65;;;;;;;13.16;100.00;102933.25;10798964;26;20017;-71
2024/04/11 14:14:41;;;;;;;15.88;12.07;;;;;;;13.05;100.00;102932.44;10789894;26;20494;-71
2024/04/11 14:19:39;;;;;;;15.93;12.32;;;;;;;13.22;100.00;102931.28;10784263;26;20033;-71
2024/04/11 14:24:39;;;;;;;19.50;11.82;;;;;;;13.18;100.00;102939.28;10853177;26;20013;-72
2024/04/11 14:29:37;;;;;;;15.30;12.63;;;;;;;13.28;100.00;102934.88;10805963;26;20350;-71
2024/04/11 14:35:22;;;;;;;13.25;10.73;;;;;;;13.34;100.00;102922.75;10791535;26;20057;-71
2024/04/11 14:40:01;;;;;;;;;;;;;;;13.51;100.00;102923.19;10839300;26;20005;-71
2024/04/11 14:44:58;;;;;;;15.48;12.25;;;;;;;13.31;100.00;102926.06;10782436;26;20008;-71
2024/04/11 14:50:03;;;;;;;14.40;11.63;;;;;;;13.38;100.00;102919.13;10798694;26;20006;-71
2024/04/11 14:55:09;;;;;;;18.98;12.00;;;;;;;13.21;100.00;102930.47;10789374;26;20453;-71
2024/04/11 15:05:24;;;;;;;17.02;13.35;;;;;;;13.18;100.00;102942.03;10765321;26;20022;-73
2024/04/11 15:10:26;;;;;;;16.10;12.45;;;;;;;13.16;100.00;102948.88;10777500;26;20512;-71
2024/04/11 15:15:36;;;;;;;17.67;13.05;;;;;;;13.21;100.00;102946.94;10770031;26;20037;-72
2024/04/11 15:20:45;;;;;;;13.55;11.90;;;;;;;13.11;100.00;102963.47;10849030;26;21419;-72
2024/04/11 15:25:45;;;;;;;13.27;11.73;;;;;;;13.12;100.00;102959.63;10830553;26;20400;-72
2024/04/11 15:30:49;;;;;;;18.40;12.45;;;;;;;13.06;100.00;102949.75;10823071;26;20069;-72
2024/04/11 15:35:49;;;;;;;14.07;12.00;;;;;;;13.11;100.00;102952.50;10842683;26;20056;-72
2024/04/11 15:40:50;;;;;;;17.50;12.98;;;;;;;13.16;100.00;102955.22;10849036;26;20019;-72
2024/04/11 15:45:57;;;;;;;14.05;12.20;;;;;;;13.15;100.00;102950.81;10790484;26;20142;-71
2024/04/11 15:50:54;;;;;;;15.57;12.07;;;;;;;13.09;100.00;102946.47;10818253;26;20001;-71
2024/04/11 15:55:53;;;;;;;16.98;12.10;;;;;;;13.06;100.00;102966.22;10838231;26;20001;-72
2024/04/11 16:00:53;;;;;;;14.32;12.60;;;;;;;13.09;100.00;102954.69;10792792;26;20002;-71
2024/04/11 16:05:57;;;;;;;18.88;13.13;;;;;;;13.13;100.00;102961.25;10785010;26;20038;-71
2024/04/11 16:11:00;;;;;;;17.23;12.90;;;;;;;13.15;100.00;102947.25;10782707;26;20002;-71
2024/04/11 16:15:58;;;;;;;16.50;13.18;;;;;;;13.21;100.00;102968.09;10775438;26;20009;-71
2024/04/11 16:20:59;;;;;;;18.63;13.57;;;;;;;13.17;100.00;102956.84;10790766;26;20020;-72
2024/04/11 16:26:11;;;;;;;14.70;12.68;;;;;;;13.26;100.00;102949.66;10785535;26;20024;-71
2024/04/11 16:31:17;;;;;;;15.32;11.75;;;;;;;13.30;100.00;102949.97;10810199;26;20059;-71
2024/04/11 16:36:14;;;;;;;15.13;11.88;;;;;;;13.24;100.00;102946.38;10847587;26;20005;-71
2024/04/11 16:41:11;;;;;;;15.82;11.25;;;;;;;13.28;100.00;102940.38;10842043;26;20005;-71
2024/04/11 16:46:08;;;;;;;14.82;10.93;;;;;;;13.28;100.00;102951.34;10793505;26;20009;-71
2024/04/11 16:51:05;;;;;;;17.35;12.05;;;;;;;13.25;100.00;102953.53;10808382;26;20067;-71
2024/04/11 16:56:11;;;;;;;20.35;12.32;;;;;;;13.26;100.00;102960.66;10831907;26;20002;-71
2024/04/11 17:01:08;;;;;;;18.40;12.25;;;;;;;13.24;100.00;102962.84;10791136;26;20009;-72
2024/04/11 17:06:13;;;;;;;17.63;11.60;;;;;;;13.21;100.00;102963.44;10782360;26;20030;-71
2024/04/11 17:11:18;;;;;;;20.73;12.98;;;;;;;13.13;100.00;102974.97;10798394;26;19997;-71
2024/04/11 17:16:17;;;;;;;16.05;13.05;;;;;;;13.11;100.00;102974.47;10794061;26;20025;-71
2024/04/11 17:21:18;;;;;;;16.58;12.98;;;;;;;13.04;100.00;102984.91;10780862;26;20469;-71
2024/04/11 17:26:17;;;;;;;18.00;12.23;;;;;;;12.89;100.00;102998.69;10804711;26;20061;-73
2024/04/11 17:31:32;;;;;;;18.08;13.50;;;;;;;12.80;100.00;102991.00;10813206;26;20017;-71
2024/04/11 17:41:27;;;;;;;16.20;11.57;;;;;;;12.75;100.00;103012.97;10814195;26;20079;-70
2024/04/11 17:46:28;;;;;;;20.25;13.75;;;;;;;12.69;100.00;103005.84;10837563;26;20023;-73
2024/04/11 17:51:31;;;;;;;16.23;12.27;;;;;;;12.60;100.00;102997.38;10872978;26;20000;-73
2024/04/11 17:56:34;;;;;;;25.10;13.35;;;;;;;12.46;100.00;102996.25;10856121;26;20016;-73
2024/04/11 18:01:32;;;;;;;21.05;13.30;;;;;;;12.43;100.00;103005.03;10857292;26;20809;-73
2024/04/11 18:06:38;;;;;;;29.27;14.38;;;;;;;12.48;100.00;103005.03;10863085;26;20538;-71
2024/04/11 18:11:46;;;;;;;22.98;13.60;;;;;;;12.54;100.00;103003.13;10871576;26;20012;-73
2024/04/11 18:16:52;;;;;;;24.30;14.95;;;;;;;12.53;100.00;103006.94;10855488;26;20016;-73
2024/04/11 18:21:51;;;;;;;21.45;13.88;;;;;;;12.56;100.00;103011.91;10865303;26;20005;-73
2024/04/11 18:26:49;;;;;;;22.58;14.55;;;;;;;12.43;100.00;103008.59;10852536;26;20009;-73
2024/04/11 18:31:47;;;;;;;22.98;13.38;;;;;;;12.42;100.00;102996.00;10881094;26;19997;-73
2024/04/11 18:36:45;;;;;;;23.90;13.95;;;;;;;12.43;100.00;102989.41;10857452;26;20366;-73
2024/04/11 18:41:57;;;;;;;20.30;12.88;;;;;;;12.51;100.00;102988.03;10856497;26;20016;-72
2024/04/11 18:47:24;;;;;;;18.75;13.32;;;;;;;12.57;100.00;102980.63;10853188;26;20461;-73
2024/04/11 18:52:22;;;;;;;19.55;12.68;;;;;;;12.59;100.00;102987.47;10846107;26;20012;-73
2024/04/11 18:57:24;;;;;;;21.38;13.10;;;;;;;12.51;100.00;102998.16;10867710;26;20025;-70
2024/04/11 19:02:22;;;;;;;;;;;;;;;12.36;100.00;102988.84;10845251;26;20698;-73
2024/04/11 19:07:20;;;;;;;20.02;14.00;;;;;;;12.35;100.00;102983.66;10857040;26;19934;-70
2024/04/11 19:12:20;;;;;;;20.40;12.95;;;;;;;12.34;100.00;102993.78;10821773;26;20052;-73
2024/04/11 19:17:18;;;;;;;26.52;15.27;;;;;;;12.36;100.00;102994.34;10845241;26;20012;-74
2024/04/11 19:22:15;;;;;;;25.80;14.20;;;;;;;12.40;100.00;102998.19;10845515;26;20037;-71
2024/04/11 19:27:20;;;;;;;22.90;15.02;;;;;;;12.49;100.00;103003.13;10845169;26;20021;-72
2024/04/11 19:32:18;;;;;;;18.30;13.95;;;;;;;12.56;100.00;102987.22;10839059;26;20008;-72
2024/04/11 19:37:16;;;;;;;23.10;14.65;;;;;;;12.58;100.00;102998.75;10848483;26;20096;-73
2024/04/11 19:42:19;;;;;;;22.45;13.65;;;;;;;12.60;100.00;103007.50;10865871;26;20013;-73
2024/04/11 19:47:18;;;;;;;21.50;13.90;;;;;;;12.64;100.00;102997.63;10863258;26;20008;-73
2024/04/11 19:52:20;;;;;;;19.58;14.65;;;;;;;12.68;100.00;102989.66;10851709;26;20009;-70
2024/04/11 19:57:18;;;;;;;;;;;;;;;12.64;100.00;102986.63;10863576;26;20020;-70
2024/04/11 20:02:17;;;;;;;26.33;18.77;;;;;;;12.68;100.00;102995.16;10858249;26;20015;-70
2024/04/11 20:07:16;;;;;;;24.35;16.73;;;;;;;12.66;100.00;103005.59;10853429;26;20594;-72
2024/04/11 20:12:16;;;;;;;25.30;16.52;;;;;;;12.68;100.00;103015.19;10851031;26;20005;-73
2024/04/11 20:17:28;;;;;;;23.42;15.82;;;;;;;12.70;100.00;103002.00;10847562;26;20019;-73
2024/04/11 20:22:30;;;;;;;24.65;16.58;;;;;;;12.65;100.00;103007.50;10847685;26;20005;-73
2024/04/11 20:27:29;;;;;;;;;;;;;;;12.68;100.00;103006.94;10848151;26;20005;-71
2024/04/11 20:32:28;;;;;;;24.25;15.63;;;;;;;12.65;100.00;103013.00;10843736;26;20251;-70
2024/04/11 20:37:26;;;;;;;23.80;15.32;;;;;;;12.62;100.00;103016.28;10860285;26;20013;-70
2024/04/11 20:47:54;;;;;;;24.33;15.52;;;;;;;12.60;100.00;102999.25;10857908;26;20048;-71
2024/04/11 21:35:00;;;;;;;27.05;17.85;;;;;;;12.70;100.00;103006.69;10852820;26;20009;-69
2024/04/11 21:39:59;;;;;;;30.73;18.50;;;;;;;12.70;100.00;103003.94;10873152;26;20016;-71
2024/04/11 21:44:56;;;;;;;28.25;19.33;;;;;;;12.63;100.00;102996.81;10852927;26;19997;-72
2024/04/11 21:49:54;;;;;;;26.90;18.05;;;;;;;12.69;100.00;102994.84;10844827;26;20078;-70
2024/04/11 21:54:56;;;;;;;32.55;20.80;;;;;;;12.64;100.00;102981.16;10837571;26;20473;-69
2024/04/11 21:59:54;;;;;;;31.70;19.13;;;;;;;12.63;100.00;102979.53;10853639;26;20005;-69
2024/04/11 22:04:52;;;;;;;32.40;20.98;;;;;;;12.63;100.00;102976.78;10838663;26;20448;-69
2024/04/11 22:09:50;;;;;;;32.45;19.35;;;;;;;12.65;100.00;102982.81;10856598;26;20028;-69
2024/04/11 22:14:48;;;;;;;32.60;20.02;;;;;;;12.63;100.00;102980.34;10842288;26;20023;-69
2024/04/11 22:19:47;;;;;;;32.80;20.88;;;;;;;12.64;100.00;102986.63;10862611;26;20388;-68
2024/04/11 22:24:46;;;;;;;37.13;20.95;;;;;;;12.69;100.00;102994.03;10850642;26;20078;-70
2024/04/11 22:29:52;;;;;;;36.65;21.05;;;;;;;12.67;100.00;102986.09;10856642;26;20023;-69
2024/04/11 22:34:52;;;;;;;31.95;19.50;;;;;;;12.69;100.00;102989.38;10788868;26;20014;-71
2024/04/11 22:39:53;;;;;;;31.73;20.10;;;;;;;12.68;100.00;102989.66;10785766;26;20025;-71
2024/04/11 22:44:50;;;;;;;30.15;18.85;;;;;;;12.69;100.00;102983.88;10758147;26;20312;-69
2024/04/11 22:49:47;;;;;;;29.10;18.48;;;;;;;12.72;100.00;102999.00;10778465;26;20444;-70
2024/04/11 22:54:46;;;;;;;31.17;19.77;;;;;;;12.73;100.00;102995.97;10789822;26;20012;-69
2024/04/11 22:59:44;;;;;;;32.58;19.27;;;;;;;12.78;100.00;102998.69;10785488;26;20104;-70
2024/04/11 23:04:42;;;;;;;33.47;21.23;;;;;;;12.77;100.00;102991.56;10798228;26;20064;-69
2024/04/11 23:09:53;;;;;;;28.90;19.55;;;;;;;12.83;100.00;102995.97;10851175;26;20090;-70
2024/04/11 23:14:50;;;;;;;30.88;19.83;;;;;;;12.81;100.00;102992.66;10796922;26;20037;-71
2024/04/11 23:19:58;;;;;;;32.47;19.67;;;;;;;12.88;100.00;102986.03;10802794;26;20009;-70
2024/04/11 23:24:58;;;;;;;29.92;18.42;;;;;;;12.87;100.00;102989.91;10775026;26;20301;-69
2024/04/11 23:29:55;;;;;;;31.42;19.92;;;;;;;12.85;100.00;102988.25;10852035;26;20056;-71
2024/04/11 23:35:05;;;;;;;29.65;19.83;;;;;;;12.88;100.00;102988.78;10808314;26;20014;-70